Time;durP1;ratioP1;P1;durP2;ratioP2;P2;SDS_P1;SDS_P2;PMS_P1;PMS_P2;Temp;Humidity;BMP_temperature;BMP_pressure;BME280_temperature;BME280_humidity;BME280_pressure;Samples;Min_cycle;Max_cycle;Signal;HPM_P1;HPM_P2
2022/05/07 00:02:17;;;;;;;23.90;15.97;;;9.60;99.90;;;;;;4956036;29;20206;-78
2022/05/07 00:04:45;;;;;;;22.30;16.20;;;9.50;99.90;;;;;;4951217;28;20223;-79
2022/05/07 00:07:12;;;;;;;23.97;15.73;;;9.60;99.90;;;;;;4948214;29;20330;-79
2022/05/07 00:09:40;;;;;;;22.83;16.10;;;9.40;99.90;;;;;;4946501;28;20303;-78
2022/05/07 00:12:08;;;;;;;22.73;16.27;;;9.40;99.90;;;;;;4948190;29;20234;-78
2022/05/07 00:14:35;;;;;;;21.53;15.80;;;9.40;99.90;;;;;;4955011;29;20206;-78
2022/05/07 00:19:48;;;;;;;23.43;15.90;;;9.30;99.90;;;;;;4956093;29;20618;-78
2022/05/07 00:22:15;;;;;;;23.27;15.90;;;9.30;99.90;;;;;;4947121;29;20690;-78
2022/05/07 00:24:42;;;;;;;23.07;16.07;;;9.40;99.90;;;;;;4936277;29;20232;-78
2022/05/07 00:27:09;;;;;;;24.87;16.27;;;9.40;99.90;;;;;;4942971;29;20234;-78
2022/05/07 00:29:36;;;;;;;21.67;15.63;;;9.50;99.90;;;;;;4954778;28;20303;-78
2022/05/07 00:32:04;;;;;;;22.47;15.67;;;9.60;99.90;;;;;;4956451;29;20571;-78
2022/05/07 00:34:31;;;;;;;20.90;15.17;;;9.70;99.90;;;;;;4948281;29;20307;-78
2022/05/07 00:36:59;;;;;;;21.00;14.80;;;9.80;99.90;;;;;;4955726;29;20282;-78
2022/05/07 00:39:26;;;;;;;22.70;15.93;;;9.80;99.90;;;;;;4955479;29;20288;-78
2022/05/07 00:41:53;;;;;;;21.10;14.87;;;9.90;99.90;;;;;;4955886;28;20701;-78
2022/05/07 00:44:22;;;;;;;23.07;15.73;;;10.00;99.90;;;;;;4956580;28;20318;-78
2022/05/07 00:46:50;;;;;;;21.93;15.07;;;10.00;99.90;;;;;;4955608;28;20210;-78
2022/05/07 00:49:18;;;;;;;25.60;15.50;;;10.00;99.90;;;;;;4955666;29;20694;-79
2022/05/07 00:51:45;;;;;;;22.77;14.97;;;10.00;99.90;;;;;;4955272;28;20305;-78
2022/05/07 00:54:13;;;;;;;23.57;15.10;;;10.10;99.90;;;;;;4955775;29;20205;-78
2022/05/07 00:56:41;;;;;;;21.67;15.00;;;10.10;99.90;;;;;;4953185;29;20242;-78
2022/05/07 00:59:08;;;;;;;19.50;14.77;;;10.10;99.90;;;;;;4955370;29;20296;-78
2022/05/07 01:01:35;;;;;;;19.27;14.73;;;10.20;99.90;;;;;;4946814;29;20282;-78
2022/05/07 01:04:02;;;;;;;21.77;14.83;;;10.20;99.90;;;;;;4955139;28;20229;-78
2022/05/07 01:06:30;;;;;;;23.47;14.70;;;10.20;99.90;;;;;;4945415;29;20566;-78
2022/05/07 01:08:57;;;;;;;19.63;14.77;;;10.10;99.90;;;;;;4947550;29;20210;-78
2022/05/07 01:11:27;;;;;;;18.20;13.47;;;10.30;99.90;;;;;;4948211;29;20290;-78
2022/05/07 01:13:54;;;;;;;18.17;14.23;;;10.30;99.90;;;;;;4936673;29;20220;-78
2022/05/07 01:16:21;;;;;;;19.37;14.10;;;10.30;99.90;;;;;;4936511;29;20246;-78
2022/05/07 01:18:48;;;;;;;18.23;14.07;;;10.50;99.90;;;;;;4953036;28;20645;-78
2022/05/07 01:21:17;;;;;;;20.10;13.67;;;10.40;99.90;;;;;;4945242;29;20662;-78
2022/05/07 01:23:45;;;;;;;18.83;13.87;;;10.40;99.90;;;;;;4949279;28;20237;-78
2022/05/07 01:26:12;;;;;;;17.50;13.90;;;10.50;99.90;;;;;;4939277;29;20204;-78
2022/05/07 01:28:40;;;;;;;16.93;13.40;;;10.50;99.90;;;;;;4944145;29;20292;-78
2022/05/07 01:31:07;;;;;;;18.93;13.27;;;10.50;99.90;;;;;;4945620;29;20598;-78
2022/05/07 01:33:35;;;;;;;18.27;13.47;;;10.70;99.90;;;;;;4943912;29;20226;-78
2022/05/07 01:36:03;;;;;;;18.20;12.70;;;10.50;99.90;;;;;;4950504;29;20205;-78
2022/05/07 01:38:32;;;;;;;17.50;12.90;;;10.60;99.90;;;;;;4939048;29;20273;-78
2022/05/07 01:40:59;;;;;;;18.37;13.13;;;10.40;99.90;;;;;;4945871;28;20208;-78
2022/05/07 01:43:27;;;;;;;14.70;11.97;;;10.50;99.90;;;;;;4938994;29;20615;-78
2022/05/07 01:45:55;;;;;;;16.17;12.33;;;10.50;99.90;;;;;;4953276;29;20304;-78
2022/05/07 01:48:21;;;;;;;16.60;12.50;;;10.50;99.90;;;;;;4946942;29;20669;-78
2022/05/07 01:50:48;;;;;;;16.33;12.47;;;10.50;99.90;;;;;;4945321;29;20197;-79
2022/05/07 01:53:15;;;;;;;14.23;11.70;;;10.70;99.90;;;;;;4946445;29;20230;-79
2022/05/07 01:55:44;;;;;;;16.10;12.17;;;10.70;99.90;;;;;;4938764;29;20239;-78
2022/05/07 01:58:12;;;;;;;16.70;12.53;;;10.60;99.90;;;;;;4948684;29;20283;-78
2022/05/07 02:00:41;;;;;;;16.03;12.47;;;10.70;99.90;;;;;;4944748;29;20202;-78
2022/05/07 02:03:09;;;;;;;17.30;12.90;;;10.70;99.90;;;;;;4954365;29;20236;-78
2022/05/07 02:05:36;;;;;;;14.67;11.77;;;10.70;99.90;;;;;;4938121;28;20285;-78
2022/05/07 02:08:04;;;;;;;15.83;12.03;;;10.70;99.90;;;;;;4951913;29;20233;-78
2022/05/07 02:10:31;;;;;;;15.83;11.77;;;10.70;99.90;;;;;;4946925;29;20637;-78
2022/05/07 02:13:01;;;;;;;15.60;11.47;;;10.80;99.90;;;;;;4951628;29;20229;-78
2022/05/07 02:15:30;;;;;;;14.87;11.03;;;10.80;99.90;;;;;;4939886;29;20280;-79
2022/05/07 02:17:57;;;;;;;15.17;11.97;;;10.70;99.90;;;;;;4950368;29;20205;-79
2022/05/07 02:20:25;;;;;;;15.53;10.83;;;10.70;99.90;;;;;;4942081;28;20301;-79
2022/05/07 02:22:55;;;;;;;15.03;11.57;;;10.70;99.90;;;;;;4950930;29;20239;-78
2022/05/07 02:25:22;;;;;;;17.03;11.87;;;10.70;99.90;;;;;;4943934;28;20231;-79
2022/05/07 02:27:49;;;;;;;13.97;11.17;;;10.80;99.90;;;;;;4946145;29;20235;-78
2022/05/07 02:30:19;;;;;;;15.77;11.43;;;10.70;99.90;;;;;;4946112;29;20241;-78
2022/05/07 02:32:47;;;;;;;15.40;11.20;;;10.80;99.90;;;;;;4938854;29;20714;-78
2022/05/07 02:35:14;;;;;;;14.63;11.67;;;10.80;99.90;;;;;;4937117;29;20197;-78
2022/05/07 02:37:41;;;;;;;15.43;11.23;;;10.80;99.90;;;;;;4944859;29;20648;-78
2022/05/07 02:40:09;;;;;;;15.20;11.73;;;10.80;99.90;;;;;;4944038;28;20236;-78
2022/05/07 02:42:36;;;;;;;14.53;12.00;;;10.80;99.90;;;;;;4953792;29;20244;-78
2022/05/07 02:45:06;;;;;;;15.70;11.80;;;10.80;99.90;;;;;;4952265;28;20277;-78
2022/05/07 02:47:34;;;;;;;15.90;11.40;;;10.80;99.90;;;;;;4938428;29;20678;-79
2022/05/07 02:50:02;;;;;;;16.77;12.17;;;10.90;99.90;;;;;;4946052;28;20257;-78
2022/05/07 02:52:32;;;;;;;14.40;11.40;;;10.90;99.90;;;;;;4934763;29;20683;-78
2022/05/07 02:55:00;;;;;;;15.07;11.97;;;10.90;99.90;;;;;;4949394;29;20664;-78
2022/05/07 02:57:27;;;;;;;15.47;12.03;;;10.90;99.90;;;;;;4937226;29;20303;-78
2022/05/07 02:59:54;;;;;;;15.80;11.80;;;10.90;99.90;;;;;;4947387;29;20633;-78
2022/05/07 03:02:20;;;;;;;15.60;11.30;;;11.00;99.90;;;;;;4946419;28;20231;-78
2022/05/07 03:04:49;;;;;;;12.93;10.47;;;11.00;99.90;;;;;;4949965;29;20312;-78
2022/05/07 03:07:16;;;;;;;15.33;11.17;;;11.10;99.90;;;;;;4934739;29;20244;-78
2022/05/07 03:09:43;;;;;;;14.33;11.23;;;11.00;99.90;;;;;;4940991;29;20256;-78
2022/05/07 03:12:11;;;;;;;20.40;12.00;;;11.00;99.90;;;;;;4940615;29;20234;-79
2022/05/07 03:14:38;;;;;;;14.63;11.23;;;11.10;99.90;;;;;;4944728;29;20203;-79
2022/05/07 03:17:05;;;;;;;14.73;10.93;;;11.00;99.90;;;;;;4947365;29;20203;-78
2022/05/07 03:19:32;;;;;;;15.70;11.07;;;11.10;99.90;;;;;;4944237;29;20209;-79
2022/05/07 03:22:00;;;;;;;16.77;10.70;;;11.00;99.90;;;;;;4942421;28;20240;-79
2022/05/07 03:24:27;;;;;;;14.50;10.80;;;11.00;99.90;;;;;;4944974;29;20294;-79
2022/05/07 03:26:54;;;;;;;14.50;10.67;;;11.00;99.90;;;;;;4942177;29;20290;-79
2022/05/07 03:29:21;;;;;;;16.87;11.30;;;11.00;99.90;;;;;;4941774;29;20231;-79
2022/05/07 03:31:49;;;;;;;14.27;10.83;;;11.10;99.90;;;;;;4941980;29;20244;-79
2022/05/07 03:34:17;;;;;;;14.60;10.67;;;11.10;99.90;;;;;;4945050;29;20203;-79
2022/05/07 03:36:44;;;;;;;14.33;10.70;;;11.10;99.90;;;;;;4948304;29;20290;-79
2022/05/07 03:39:12;;;;;;;14.47;10.97;;;11.20;99.90;;;;;;4944944;28;20208;-79
2022/05/07 03:41:39;;;;;;;14.63;11.63;;;11.20;99.90;;;;;;4944947;29;20212;-79
2022/05/07 03:44:07;;;;;;;17.57;11.87;;;11.20;99.90;;;;;;4939038;29;20260;-79
2022/05/07 03:46:34;;;;;;;15.03;11.23;;;11.20;99.90;;;;;;4944693;29;20644;-79
2022/05/07 03:49:01;;;;;;;15.63;11.37;;;11.20;99.90;;;;;;4943934;28;20249;-79
2022/05/07 03:51:28;;;;;;;16.37;11.20;;;11.20;99.90;;;;;;4944337;29;20694;-78
2022/05/07 03:53:54;;;;;;;15.00;11.33;;;11.20;99.90;;;;;;4937630;28;20686;-79
2022/05/07 03:56:22;;;;;;;15.87;11.70;;;11.20;99.90;;;;;;4941804;29;20699;-79
2022/05/07 03:58:49;;;;;;;16.67;11.67;;;11.20;99.90;;;;;;4941835;29;20317;-79
2022/05/07 04:01:16;;;;;;;18.03;12.70;;;11.20;99.90;;;;;;4942868;29;20244;-79
2022/05/07 04:03:44;;;;;;;16.80;11.20;;;11.20;99.90;;;;;;4947198;29;20294;-79
2022/05/07 04:06:11;;;;;;;17.00;12.40;;;11.30;99.90;;;;;;4943444;29;20233;-79
2022/05/07 04:08:37;;;;;;;15.50;11.73;;;11.20;99.90;;;;;;4950529;28;20649;-79
2022/05/07 04:11:04;;;;;;;17.17;11.53;;;11.30;99.90;;;;;;4945425;29;20225;-79
2022/05/07 04:13:33;;;;;;;14.93;11.83;;;11.20;99.90;;;;;;4953599;29;20252;-79
2022/05/07 04:16:00;;;;;;;17.70;12.20;;;11.20;99.90;;;;;;4949254;28;20231;-79
2022/05/07 04:18:27;;;;;;;20.50;12.50;;;11.20;99.90;;;;;;4952917;29;20217;-79
2022/05/07 04:20:53;;;;;;;18.80;11.67;;;11.20;99.90;;;;;;4943524;29;20320;-79
2022/05/07 04:23:20;;;;;;;18.00;11.97;;;11.20;99.90;;;;;;4952230;28;20801;-79
2022/05/07 04:25:47;;;;;;;19.80;11.87;;;11.30;99.90;;;;;;4951463;29;20224;-79
2022/05/07 04:28:14;;;;;;;16.63;12.40;;;11.20;99.90;;;;;;4947620;29;20249;-79
2022/05/07 04:30:42;;;;;;;17.63;12.40;;;11.20;99.90;;;;;;4947290;29;20276;-79
2022/05/07 04:33:10;;;;;;;18.07;11.40;;;11.30;99.90;;;;;;4952890;29;20236;-79
2022/05/07 04:35:37;;;;;;;17.20;12.27;;;11.30;99.90;;;;;;4947301;29;20698;-79
2022/05/07 04:38:04;;;;;;;17.13;11.87;;;11.30;99.90;;;;;;4948076;29;20230;-79
2022/05/07 04:40:30;;;;;;;18.50;12.53;;;11.30;99.90;;;;;;4947333;29;20238;-79
2022/05/07 04:42:57;;;;;;;19.30;12.07;;;11.30;99.90;;;;;;4944775;29;20242;-79
2022/05/07 04:45:25;;;;;;;16.87;12.17;;;11.30;99.90;;;;;;4944821;29;20227;-79
2022/05/07 04:47:53;;;;;;;17.97;11.90;;;11.40;99.90;;;;;;4942638;29;20204;-79
2022/05/07 04:50:20;;;;;;;20.13;12.57;;;11.30;99.90;;;;;;4953398;28;20209;-79
2022/05/07 04:52:47;;;;;;;18.40;12.83;;;11.30;99.90;;;;;;4955126;29;20242;-79
2022/05/07 04:55:14;;;;;;;17.07;12.20;;;11.40;99.90;;;;;;4943478;29;20231;-79
2022/05/07 04:57:41;;;;;;;17.60;12.23;;;11.40;99.90;;;;;;4940816;29;20298;-79
2022/05/07 05:00:09;;;;;;;18.17;11.67;;;11.40;99.90;;;;;;4952454;29;20204;-79
2022/05/07 05:02:36;;;;;;;17.93;11.53;;;11.40;99.90;;;;;;4944010;29;20285;-79
2022/05/07 05:05:05;;;;;;;18.80;11.83;;;11.30;99.90;;;;;;4953603;28;20314;-79
2022/05/07 05:07:32;;;;;;;17.33;11.10;;;11.50;99.90;;;;;;4946817;29;20324;-79
2022/05/07 05:09:59;;;;;;;15.53;11.63;;;11.40;99.90;;;;;;4939254;29;20350;-79
2022/05/07 05:12:26;;;;;;;16.67;11.77;;;11.50;99.90;;;;;;4936381;29;20239;-79
2022/05/07 05:15:04;;;;;;;16.57;11.33;;;11.40;99.90;;;;;;4936567;29;20278;-79
2022/05/07 05:17:33;;;;;;;19.07;11.83;;;11.50;99.90;;;;;;4948429;28;20195;-79
2022/05/07 05:20:01;;;;;;;15.30;10.80;;;11.60;99.90;;;;;;4951458;29;20285;-79
2022/05/07 05:22:29;;;;;;;17.33;11.77;;;11.50;99.90;;;;;;4944707;29;20208;-79
2022/05/07 05:24:56;;;;;;;17.10;11.47;;;11.60;99.90;;;;;;4948461;28;20322;-79
2022/05/07 05:27:23;;;;;;;16.43;11.73;;;11.50;99.90;;;;;;4950923;28;20294;-79
2022/05/07 05:29:50;;;;;;;16.77;11.83;;;11.60;99.90;;;;;;4950752;29;20238;-79
2022/05/07 05:32:18;;;;;;;14.77;11.43;;;11.60;99.90;;;;;;4952409;29;20209;-79
2022/05/07 05:34:49;;;;;;;16.53;10.80;;;11.70;99.90;;;;;;4936454;29;20238;-79
2022/05/07 05:37:17;;;;;;;16.13;11.00;;;11.70;99.90;;;;;;4936202;29;20239;-79
2022/05/07 05:39:46;;;;;;;17.87;11.53;;;11.70;99.90;;;;;;4941334;29;20286;-79
2022/05/07 05:42:14;;;;;;;12.60;10.23;;;11.80;99.90;;;;;;4953016;28;20238;-79
2022/05/07 05:44:42;;;;;;;14.93;11.17;;;11.80;99.90;;;;;;4940041;29;20314;-79
2022/05/07 05:47:10;;;;;;;16.17;11.27;;;11.80;99.90;;;;;;4935990;29;20231;-79
2022/05/07 05:49:37;;;;;;;13.30;10.20;;;11.90;99.90;;;;;;4947183;29;20286;-79
2022/05/07 05:52:05;;;;;;;14.77;10.07;;;11.90;99.90;;;;;;4954997;29;20294;-79
2022/05/07 05:54:32;;;;;;;12.33;9.10;;;11.90;99.90;;;;;;4945069;29;20717;-79
2022/05/07 05:57:01;;;;;;;11.27;8.90;;;11.90;99.90;;;;;;4942161;29;20234;-79
2022/05/07 05:59:28;;;;;;;11.03;8.80;;;12.00;99.90;;;;;;4944883;29;20245;-79
2022/05/07 06:01:55;;;;;;;11.50;8.57;;;12.00;99.90;;;;;;4948933;29;20211;-79
2022/05/07 06:04:22;;;;;;;13.73;9.27;;;12.10;99.90;;;;;;4950595;29;20300;-79
2022/05/07 06:06:49;;;;;;;12.00;9.50;;;12.30;99.90;;;;;;4939703;29;20239;-79
2022/05/07 06:09:16;;;;;;;14.43;9.63;;;12.30;99.90;;;;;;4947428;29;20238;-79
2022/05/07 06:11:42;;;;;;;13.73;9.57;;;12.40;99.90;;;;;;4945845;29;20230;-79
2022/05/07 06:14:11;;;;;;;13.90;9.73;;;12.50;99.90;;;;;;4945156;29;20199;-78
2022/05/07 06:16:38;;;;;;;11.17;9.07;;;12.50;99.90;;;;;;4946832;28;20286;-79
2022/05/07 06:19:05;;;;;;;14.40;9.30;;;12.40;99.90;;;;;;4936973;29;20231;-79
2022/05/07 06:21:32;;;;;;;12.23;7.83;;;12.60;99.90;;;;;;4941501;28;20540;-79
2022/05/07 06:27:28;;;;;;;10.67;8.20;;;12.60;99.90;;;;;;4953925;29;20315;-78
2022/05/07 06:29:32;;;;;;;13.43;8.67;;;12.60;99.90;;;;;;4942591;29;20335;-78
2022/05/07 06:31:58;;;;;;;14.43;9.43;;;12.80;99.90;;;;;;4937516;29;20235;-78
2022/05/07 06:34:25;;;;;;;14.27;9.20;;;12.90;99.90;;;;;;4937119;29;20258;-79
2022/05/07 06:36:54;;;;;;;9.87;8.20;;;13.00;99.90;;;;;;4943685;29;20236;-78
2022/05/07 06:39:22;;;;;;;11.53;8.20;;;13.00;99.90;;;;;;4948680;29;20211;-78
2022/05/07 06:41:49;;;;;;;10.30;7.70;;;13.00;99.90;;;;;;4941489;29;20718;-78
2022/05/07 06:44:16;;;;;;;12.60;7.77;;;13.20;99.90;;;;;;4935196;29;20210;-78
2022/05/07 06:46:45;;;;;;;9.60;7.80;;;13.40;99.90;;;;;;4944981;28;20310;-79
2022/05/07 06:49:14;;;;;;;11.67;7.60;;;13.70;99.90;;;;;;4953038;29;20198;-79
2022/05/07 06:51:41;;;;;;;9.87;7.07;;;14.10;99.90;;;;;;4938202;29;20232;-79
2022/05/07 06:54:08;;;;;;;7.40;6.47;;;14.30;99.90;;;;;;4951178;29;20247;-79
2022/05/07 06:56:35;;;;;;;7.40;6.40;;;14.40;99.90;;;;;;4941041;29;20282;-79
2022/05/07 06:59:02;;;;;;;7.97;6.40;;;14.10;99.90;;;;;;4953176;29;20206;-79
2022/05/07 07:01:29;;;;;;;6.70;5.97;;;14.00;99.90;;;;;;4948611;29;20594;-79
2022/05/07 07:03:58;;;;;;;8.30;6.30;;;14.10;99.90;;;;;;4934789;29;20223;-79
2022/05/07 07:06:24;;;;;;;8.27;6.10;;;14.20;99.90;;;;;;4938363;29;20223;-79
2022/05/07 07:08:52;;;;;;;8.90;6.87;;;14.20;99.90;;;;;;4953036;29;20199;-79
2022/05/07 07:11:20;;;;;;;9.30;7.83;;;14.20;99.90;;;;;;4944046;28;20993;-79
2022/05/07 07:13:47;;;;;;;9.03;7.87;;;13.90;99.90;;;;;;4950828;29;20899;-79
2022/05/07 07:16:14;;;;;;;9.73;7.17;;;13.90;99.90;;;;;;4943729;29;20687;-79
2022/05/07 07:18:41;;;;;;;12.10;7.73;;;14.10;99.90;;;;;;4946819;29;20241;-79
2022/05/07 07:21:09;;;;;;;9.27;7.50;;;14.10;99.90;;;;;;4937148;29;20675;-79
2022/05/07 07:23:36;;;;;;;11.97;7.07;;;14.30;99.90;;;;;;4949521;28;20259;-79
2022/05/07 07:26:04;;;;;;;11.13;7.40;;;14.40;99.90;;;;;;4943868;29;20266;-79
2022/05/07 07:28:31;;;;;;;8.27;6.73;;;14.40;99.90;;;;;;4942765;29;20207;-79
2022/05/07 07:30:58;;;;;;;8.13;6.30;;;14.60;99.90;;;;;;4936728;29;20204;-79
2022/05/07 07:33:25;;;;;;;7.27;6.33;;;14.80;99.90;;;;;;4949939;29;20214;-80
2022/05/07 07:35:52;;;;;;;9.80;6.90;;;14.60;99.90;;;;;;4934715;29;20196;-80
2022/05/07 07:38:21;;;;;;;8.77;7.17;;;14.60;99.90;;;;;;4943543;28;20207;-80
2022/05/07 07:40:50;;;;;;;9.73;7.63;;;14.90;99.90;;;;;;4956349;29;20306;-80
2022/05/07 07:43:17;;;;;;;12.27;7.60;;;15.20;99.90;;;;;;4954737;28;20262;-80
2022/05/07 07:48:29;;;;;;;10.57;7.53;;;15.50;99.90;;;;;;4946139;29;20202;-80
2022/05/07 07:50:56;;;;;;;11.53;7.57;;;15.60;99.90;;;;;;4950994;29;20289;-80
2022/05/07 07:53:25;;;;;;;9.53;7.10;;;16.00;99.90;;;;;;4940742;29;20200;-80
2022/05/07 07:55:53;;;;;;;7.67;6.00;;;16.50;99.90;;;;;;4942619;29;20295;-80
2022/05/07 07:58:19;;;;;;;6.77;5.60;;;16.90;99.90;;;;;;4950074;28;20648;-81
2022/05/07 08:00:46;;;;;;;7.83;6.10;;;17.20;99.90;;;;;;4956286;28;20250;-81
2022/05/07 08:03:14;;;;;;;6.00;4.75;;;17.40;99.90;;;;;;4948603;29;20259;-82
2022/05/07 08:05:42;;;;;;;6.85;5.60;;;18.10;99.90;;;;;;4951661;28;20243;-81
2022/05/07 08:13:42;;;;;;;5.93;4.90;;;20.40;99.90;;;;;;4946137;29;20206;-83
2022/05/07 08:16:10;;;;;;;5.00;4.50;;;20.40;99.90;;;;;;4954800;29;20617;-83
2022/05/07 08:18:39;;;;;;;5.25;3.90;;;22.10;99.90;;;;;;4956361;29;20203;-84
2022/05/07 08:21:07;;;;;;;6.00;4.25;;;21.90;99.90;;;;;;4953119;29;20203;-84
2022/05/07 08:23:35;;;;;;;4.93;4.43;;;23.10;99.90;;;;;;4951572;29;20758;-84
2022/05/07 08:26:04;;;;;;;5.07;4.22;;;21.90;99.90;;;;;;4945252;29;20227;-84
2022/05/07 08:28:31;;;;;;;4.50;4.10;;;20.60;99.90;;;;;;4958658;29;20740;-83
2022/05/07 08:30:58;;;;;;;6.53;4.30;;;20.60;99.90;;;;;;4953966;29;20203;-84
2022/05/07 08:33:26;;;;;;;3.90;3.40;;;22.60;99.90;;;;;;4955426;28;20623;-84
2022/05/07 08:35:53;;;;;;;3.65;3.22;;;22.40;99.90;;;;;;4956438;28;20742;-84
2022/05/07 08:38:20;;;;;;;4.35;2.70;;;22.70;99.90;;;;;;4948414;28;20290;-85
2022/05/07 08:40:47;;;;;;;3.38;2.30;;;23.10;99.90;;;;;;4956682;29;20214;-84
2022/05/07 08:43:16;;;;;;;3.38;2.53;;;23.40;99.90;;;;;;4959577;28;20299;-83
2022/05/07 08:45:44;;;;;;;4.13;2.55;;;24.00;99.90;;;;;;4952221;28;20234;-85
2022/05/07 08:48:12;;;;;;;2.97;2.50;;;24.30;99.90;;;;;;4957873;28;20681;-84
2022/05/07 08:50:40;;;;;;;3.00;2.80;;;23.60;99.90;;;;;;4949781;28;20243;-81
2022/05/07 08:53:07;;;;;;;3.00;2.72;;;22.20;99.90;;;;;;4942928;28;20638;-81
2022/05/07 08:55:34;;;;;;;3.45;2.90;;;21.30;99.90;;;;;;4949565;29;20203;-81
2022/05/07 08:58:01;;;;;;;6.57;2.90;;;20.30;99.90;;;;;;4954322;29;20242;-81
2022/05/07 09:00:30;;;;;;;3.55;2.15;;;20.50;99.90;;;;;;4952819;29;20687;-81
2022/05/07 09:02:59;;;;;;;4.03;2.40;;;22.60;99.90;;;;;;4953017;29;20199;-81
2022/05/07 09:05:34;;;;;;;3.72;2.40;;;23.80;99.90;;;;;;4947951;28;20310;-81
2022/05/07 09:08:01;;;;;;;3.45;2.28;;;24.30;99.90;;;;;;4951758;28;20226;-82
2022/05/07 09:10:28;;;;;;;2.35;2.10;;;24.70;99.90;;;;;;4955036;28;20274;-81
2022/05/07 09:12:59;;;;;;;2.38;1.85;;;24.90;99.90;;;;;;4949236;29;20706;-81
2022/05/07 09:15:26;;;;;;;2.55;2.10;;;23.80;99.90;;;;;;4939869;29;20246;-81
2022/05/07 09:17:54;;;;;;;4.32;2.33;;;22.90;99.90;;;;;;4952049;29;20283;-81
2022/05/07 09:20:22;;;;;;;2.10;1.90;;;22.40;99.90;;;;;;4940538;29;20226;-82
2022/05/07 09:22:54;;;;;;;2.92;2.30;;;24.30;99.90;;;;;;4955659;29;20270;-81
2022/05/07 09:25:22;;;;;;;2.75;1.70;;;24.10;99.90;;;;;;4939507;29;20214;-81
2022/05/07 09:27:51;;;;;;;2.40;1.90;;;22.60;99.90;;;;;;4936754;29;20294;-81
2022/05/07 09:30:23;;;;;;;2.67;1.90;;;23.00;99.90;;;;;;4930192;29;20207;-83
2022/05/07 09:32:51;;;;;;;2.67;2.08;;;24.80;99.90;;;;;;4935708;29;20200;-82
2022/05/07 09:38:06;;;;;;;5.68;2.10;;;21.80;99.90;;;;;;4917866;29;20675;-80
2022/05/07 09:40:38;;;;;;;4.03;2.20;;;20.50;99.90;;;;;;4917314;29;20288;-82
2022/05/07 09:43:06;;;;;;;2.55;1.83;;;22.80;99.90;;;;;;4917343;29;20200;-80
2022/05/07 09:45:34;;;;;;;2.28;1.55;;;22.80;99.90;;;;;;4925268;29;20287;-81
2022/05/07 09:48:01;;;;;;;4.63;1.77;;;21.80;99.90;;;;;;4934757;29;20219;-82
2022/05/07 09:58:45;;;;;;;3.38;1.50;;;20.20;99.90;;;;;;4932485;29;20202;-85
2022/05/07 10:01:35;;;;;;;2.30;1.63;;;20.30;99.90;;;;;;4932627;29;20629;-85
2022/05/07 10:04:27;;;;;;;2.47;1.60;;;20.80;99.90;;;;;;4928388;29;20290;-86
2022/05/07 10:07:36;;;;;;;3.00;1.45;;;21.90;99.90;;;;;;4929327;29;20320;-86
2022/05/07 10:10:25;;;;;;;2.97;1.50;;;23.70;99.90;;;;;;4869405;29;20690;-85
2022/05/07 10:12:55;;;;;;;4.57;1.52;;;22.90;99.90;;;;;;4869860;29;20602;-83
2022/05/07 10:15:24;;;;;;;2.28;1.60;;;21.60;99.90;;;;;;4872008;29;20201;-84
2022/05/07 10:18:02;;;;;;;2.30;1.60;;;21.20;99.90;;;;;;4873418;29;20217;-83
2022/05/07 10:20:40;;;;;;;1.48;1.17;;;23.80;99.90;;;;;;4870535;29;20210;-82
2022/05/07 10:23:09;;;;;;;1.88;1.00;;;25.90;99.90;;;;;;4875062;29;20237;-84
2022/05/07 10:25:38;;;;;;;2.35;1.15;;;26.70;99.90;;;;;;4889274;29;20241;-83
2022/05/07 10:28:10;;;;;;;2.13;1.40;;;24.60;99.90;;;;;;4884446;29;20631;-82
2022/05/07 10:30:49;;;;;;;3.53;1.67;;;23.60;99.90;;;;;;4885483;29;20216;-82
2022/05/07 10:33:18;;;;;;;1.98;1.75;;;22.30;99.90;;;;;;4885409;29;20308;-82
2022/05/07 10:35:49;;;;;;;2.17;1.85;;;21.30;99.90;;;;;;4887724;29;20257;-82
2022/05/07 10:38:26;;;;;;;4.47;1.98;;;20.90;99.90;;;;;;4891819;29;20295;-83
2022/05/07 10:40:56;;;;;;;4.35;1.73;;;21.50;99.90;;;;;;4889214;29;20208;-83
2022/05/07 10:43:32;;;;;;;6.70;1.70;;;25.10;99.90;;;;;;4891418;29;20259;-81
2022/05/07 10:46:04;;;;;;;2.88;1.73;;;26.10;99.90;;;;;;4891840;29;20231;-83
2022/05/07 10:48:42;;;;;;;3.80;1.90;;;25.00;99.90;;;;;;4928825;29;20230;-82
2022/05/07 10:51:17;;;;;;;2.50;1.45;;;24.10;99.90;;;;;;4931428;29;20292;-80
2022/05/07 10:53:44;;;;;;;2.38;1.52;;;22.70;99.90;;;;;;4935531;28;20271;-80
2022/05/07 10:56:18;;;;;;;1.95;1.40;;;24.40;99.90;;;;;;4936016;29;20279;-80
2022/05/07 10:58:46;;;;;;;2.25;1.25;;;24.90;99.90;;;;;;4926001;29;20238;-80
2022/05/07 11:01:14;;;;;;;2.35;1.25;;;26.30;99.90;;;;;;4927630;29;20196;-82
2022/05/07 11:03:41;;;;;;;2.55;1.55;;;24.70;99.90;;;;;;4929623;29;20200;-82
2022/05/07 11:06:08;;;;;;;1.88;1.63;;;23.20;99.90;;;;;;4930218;29;20306;-82
2022/05/07 11:08:46;;;;;;;2.75;1.38;;;22.60;99.90;;;;;;4931795;29;20227;-83
2022/05/07 11:11:14;;;;;;;4.28;1.58;;;23.70;99.90;;;;;;4925137;29;20302;-80
2022/05/07 11:13:54;;;;;;;4.43;1.55;;;23.30;99.90;;;;;;4920672;29;20216;-81
2022/05/07 11:16:24;;;;;;;3.15;1.65;;;23.80;99.90;;;;;;4929159;29;20208;-81
2022/05/07 11:18:52;;;;;;;4.18;1.70;;;22.90;99.90;;;;;;4915860;29;20243;-81
2022/05/07 11:21:19;;;;;;;1.65;1.40;;;23.50;99.90;;;;;;4918787;29;20212;-82
2022/05/07 11:23:53;;;;;;;2.05;1.30;;;25.60;99.90;;;;;;4928982;29;20231;-81
2022/05/07 11:26:20;;;;;;;2.05;1.40;;;24.60;99.90;;;;;;4931139;29;20323;-80
2022/05/07 11:28:48;;;;;;;2.22;1.20;;;25.30;99.90;;;;;;4935446;29;20207;-80
2022/05/07 11:31:27;;;;;;;2.30;1.30;;;25.40;99.90;;;;;;4932298;29;20203;-79
2022/05/07 11:34:05;;;;;;;3.00;1.20;;;24.70;99.90;;;;;;4933436;29;20200;-79
2022/05/07 11:36:32;;;;;;;1.48;1.30;;;23.10;99.90;;;;;;4936144;29;20200;-79
2022/05/07 11:39:00;;;;;;;2.10;1.40;;;21.90;99.90;;;;;;4938029;29;20233;-79
2022/05/07 11:41:27;;;;;;;3.05;1.70;;;21.90;99.90;;;;;;4934590;29;20200;-79
2022/05/07 11:46:51;;;;;;;1.98;1.30;;;23.40;99.90;;;;;;4932466;29;20226;-79
2022/05/07 11:49:28;;;;;;;1.42;1.15;;;23.20;99.90;;;;;;4940181;29;20633;-81
2022/05/07 11:52:05;;;;;;;3.10;1.00;;;24.20;99.90;;;;;;4937906;29;20212;-81
2022/05/07 11:54:32;;;;;;;3.00;1.20;;;25.70;99.90;;;;;;4933850;29;20756;-82
2022/05/07 11:57:00;;;;;;;1.83;1.10;;;27.50;99.90;;;;;;4933137;29;20291;-82
2022/05/07 11:59:27;;;;;;;3.53;1.17;;;27.80;99.90;;;;;;4932105;29;20203;-81
2022/05/07 12:01:55;;;;;;;1.88;1.30;;;26.30;99.00;;;;;;4932397;29;20290;-82
2022/05/07 12:04:32;;;;;;;1.80;1.08;;;25.20;99.90;;;;;;4937809;29;20298;-83
2022/05/07 12:06:59;;;;;;;1.45;1.02;;;26.00;98.70;;;;;;4939543;28;20570;-81
2022/05/07 12:09:28;;;;;;;1.83;1.08;;;27.20;90.80;;;;;;4939420;29;20318;-82
2022/05/07 12:11:56;;;;;;;2.40;0.93;;;26.40;74.90;;;;;;4932881;29;20239;-82
2022/05/07 12:14:23;;;;;;;1.55;1.10;;;25.90;94.60;;;;;;4939454;29;20691;-83
2022/05/07 12:19:36;;;;;;;1.38;1.02;;;26.20;82.70;;;;;;4929662;29;20223;-79
2022/05/07 12:30:27;;;;;;;1.67;1.20;;;25.00;92.00;;;;;;4916335;29;20291;-79
2022/05/07 12:32:55;;;;;;;2.58;1.10;;;23.70;97.80;;;;;;4914418;29;20231;-79
2022/05/07 12:35:23;;;;;;;2.10;1.13;;;23.60;98.10;;;;;;4916272;29;20204;-79
2022/05/07 12:37:50;;;;;;;2.25;1.30;;;23.30;99.90;;;;;;4915886;29;20243;-79
2022/05/07 12:40:17;;;;;;;2.50;1.40;;;22.30;99.90;;;;;;4915952;29;20827;-79
2022/05/07 12:42:44;;;;;;;2.45;1.17;;;21.50;99.90;;;;;;4896411;29;20241;-78
2022/05/07 12:45:11;;;;;;;2.33;1.17;;;20.70;99.90;;;;;;4897065;29;20288;-79
2022/05/07 12:47:39;;;;;;;1.70;1.15;;;19.90;99.90;;;;;;4896899;29;20229;-78
2022/05/07 12:50:07;;;;;;;1.65;1.40;;;19.80;99.90;;;;;;4896860;29;20682;-79
2022/05/07 12:52:35;;;;;;;1.60;1.50;;;19.70;99.90;;;;;;4897080;29;20204;-79
2022/05/07 12:55:02;;;;;;;2.90;1.60;;;19.90;99.90;;;;;;4896631;29;20705;-79
2022/05/07 12:57:30;;;;;;;2.97;1.50;;;19.70;99.90;;;;;;4896667;29;20284;-78
2022/05/07 12:59:57;;;;;;;2.45;1.60;;;19.40;99.90;;;;;;4903740;29;20216;-79
2022/05/07 13:02:24;;;;;;;3.30;1.50;;;19.30;99.90;;;;;;4898825;29;20292;-79
2022/05/07 13:04:51;;;;;;;3.20;1.60;;;19.30;99.90;;;;;;4933135;28;20298;-79
2022/05/07 13:07:18;;;;;;;2.03;1.65;;;19.70;99.90;;;;;;4956026;28;20231;-79
2022/05/07 13:09:46;;;;;;;1.20;1.10;;;21.10;99.90;;;;;;4956039;28;20258;-80
2022/05/07 13:12:13;;;;;;;1.83;1.10;;;24.20;99.90;;;;;;4956006;28;20207;-79
2022/05/07 13:14:40;;;;;;;1.58;1.38;;;25.50;99.90;;;;;;4955821;28;20199;-79
2022/05/07 13:17:07;;;;;;;2.85;1.50;;;25.10;99.90;;;;;;4955523;29;20687;-79
2022/05/07 13:19:35;;;;;;;2.20;1.38;;;26.20;99.90;;;;;;4937990;29;20739;-79
2022/05/07 13:22:02;;;;;;;3.20;1.40;;;23.30;99.90;;;;;;4936425;29;20254;-79
2022/05/07 13:24:29;;;;;;;3.22;1.30;;;21.80;99.90;;;;;;4936415;29;20278;-79